Time;durP1;ratioP1;P1;durP2;ratioP2;P2;SDS_P1;SDS_P2;PMS_P1;PMS_P2;Temp;Humidity;BMP_temperature;BMP_pressure;BME280_temperature;BME280_humidity;BME280_pressure;Samples;Min_cycle;Max_cycle;Signal;HPM_P1;HPM_P2
2022/06/05 00:00:17;;;;;;;4.47;3.57;;;19.20;99.90;;;;;;5089609;28;20623;-89
2022/06/05 00:02:59;;;;;;;3.10;2.90;;;19.20;99.90;;;;;;5095943;28;20635;-86
2022/06/05 00:05:32;;;;;;;3.37;3.03;;;19.20;99.90;;;;;;5109084;28;20643;-87
2022/06/05 00:08:12;;;;;;;4.10;3.10;;;19.20;99.90;;;;;;5108471;28;20631;-87
2022/06/05 00:10:42;;;;;;;2.60;2.40;;;19.20;99.90;;;;;;5109589;28;20607;-87
2022/06/05 00:13:18;;;;;;;3.73;3.43;;;19.60;99.90;;;;;;5103492;27;21252;-86
2022/06/05 00:15:45;;;;;;;3.47;3.20;;;19.20;99.90;;;;;;5088996;28;21044;-86
2022/06/05 00:18:14;;;;;;;3.53;2.63;;;19.20;99.90;;;;;;5089715;28;21024;-86
2022/06/05 00:20:42;;;;;;;2.87;2.63;;;19.30;99.90;;;;;;5089432;28;20650;-86
2022/06/05 00:23:10;;;;;;;3.07;2.77;;;19.30;99.90;;;;;;5093764;28;20631;-87
2022/06/05 00:25:47;;;;;;;3.00;2.67;;;19.60;99.90;;;;;;5108515;28;20672;-85
2022/06/05 00:28:29;;;;;;;3.27;2.83;;;19.30;99.90;;;;;;5102898;28;20651;-86
2022/06/05 00:31:05;;;;;;;5.13;4.50;;;19.30;99.90;;;;;;5089174;28;20669;-88
2022/06/05 00:33:37;;;;;;;2.80;2.40;;;19.20;99.90;;;;;;5089738;28;20676;-86
2022/06/05 00:36:15;;;;;;;4.73;3.80;;;19.30;99.90;;;;;;5088975;28;21020;-87
2022/06/05 00:38:51;;;;;;;3.70;2.87;;;19.30;99.90;;;;;;5098068;28;20624;-87
2022/06/05 00:41:45;;;;;;;3.67;3.37;;;19.30;99.90;;;;;;5101262;28;20619;-85
2022/06/05 00:44:17;;;;;;;4.23;2.90;;;19.30;99.90;;;;;;5100177;28;21166;-87
2022/06/05 00:46:47;;;;;;;4.60;2.57;;;19.20;99.90;;;;;;5087720;28;21174;-86
2022/06/05 00:49:16;;;;;;;3.20;2.67;;;19.20;99.90;;;;;;5103577;28;20642;-88
2022/06/05 00:51:44;;;;;;;3.37;3.07;;;19.20;99.90;;;;;;5108297;28;21040;-88
2022/06/05 00:54:12;;;;;;;3.13;2.83;;;;;;;;;;5092792;28;20624;-88
2022/06/05 00:56:39;;;;;;;3.63;3.30;;;19.10;99.90;;;;;;5087908;28;20707;-86
2022/06/05 00:59:06;;;;;;;3.70;3.40;;;19.10;99.90;;;;;;5089673;28;20728;-87
2022/06/05 01:01:34;;;;;;;3.90;3.20;;;19.00;99.90;;;;;;5087569;28;20620;-89
2022/06/05 01:04:02;;;;;;;3.27;2.30;;;19.00;99.90;;;;;;5089269;28;20660;-86
2022/06/05 01:06:31;;;;;;;3.20;2.87;;;18.90;99.90;;;;;;5089435;28;20662;-87
2022/06/05 01:08:58;;;;;;;2.90;2.60;;;18.80;99.90;;;;;;5095924;28;20633;-88
2022/06/05 01:11:31;;;;;;;3.30;2.83;;;18.70;99.90;;;;;;5088077;28;20615;-86
2022/06/05 01:14:12;;;;;;;3.30;3.00;;;18.60;99.90;;;;;;5088951;28;20649;-85
2022/06/05 01:16:49;;;;;;;3.23;2.93;;;18.50;99.90;;;;;;5087925;28;20957;-83
2022/06/05 01:19:31;;;;;;;3.13;2.87;;;18.50;99.90;;;;;;5088943;28;20631;-85
2022/06/05 01:22:37;;;;;;;3.90;2.93;;;18.30;99.90;;;;;;5087097;28;20611;-88
2022/06/05 01:25:51;;;;;;;3.07;2.87;;;18.20;99.90;;;;;;5087201;28;20619;-85
2022/06/05 01:28:23;;;;;;;5.73;3.47;;;18.00;99.90;;;;;;5039132;28;21395;-84
2022/06/05 01:30:58;;;;;;;3.20;2.90;;;18.20;99.90;;;;;;5087874;28;20620;-88
2022/06/05 01:33:29;;;;;;;5.47;3.23;;;18.30;99.90;;;;;;5096423;28;20753;-88
2022/06/05 01:36:07;;;;;;;4.07;2.97;;;18.20;99.90;;;;;;5107809;28;20615;-86
2022/06/05 01:38:44;;;;;;;2.90;2.70;;;18.00;99.90;;;;;;5088634;28;20634;-88
2022/06/05 01:41:16;;;;;;;3.20;2.90;;;18.00;99.90;;;;;;5099075;28;20663;-87
2022/06/05 01:43:49;;;;;;;4.33;3.90;;;17.90;99.90;;;;;;5107578;28;20726;-88
2022/06/05 01:46:20;;;;;;;4.30;3.60;;;17.90;99.90;;;;;;5107231;28;20614;-86
2022/06/05 01:48:53;;;;;;;2.63;2.33;;;17.50;99.90;;;;;;5091640;28;20620;-87
2022/06/05 01:51:29;;;;;;;3.97;3.30;;;16.00;99.90;;;;;;5093351;28;20655;-85
2022/06/05 01:54:01;;;;;;;4.20;2.80;;;18.00;99.90;;;;;;5091753;28;20722;-87
2022/06/05 01:56:34;;;;;;;4.10;2.93;;;18.00;99.90;;;;;;5091578;28;20715;-85
2022/06/05 01:59:08;;;;;;;3.83;3.53;;;18.00;99.90;;;;;;5091342;28;21234;-86
2022/06/05 02:01:39;;;;;;;3.80;3.50;;;18.00;99.90;;;;;;5091118;28;20994;-87
2022/06/05 02:04:12;;;;;;;3.80;3.20;;;18.10;99.90;;;;;;5092325;28;21095;-86
2022/06/05 02:06:42;;;;;;;4.60;2.93;;;18.10;99.90;;;;;;5090979;28;20608;-87
2022/06/05 02:09:15;;;;;;;3.30;3.00;;;18.20;99.90;;;;;;5093399;28;20724;-87
2022/06/05 02:11:42;;;;;;;4.20;3.57;;;18.10;99.90;;;;;;5089899;28;20597;-87
2022/06/05 02:14:11;;;;;;;4.00;3.13;;;18.10;99.90;;;;;;5091763;28;20682;-86
2022/06/05 02:16:40;;;;;;;4.27;3.57;;;18.10;99.90;;;;;;5090219;28;20731;-88
2022/06/05 02:19:12;;;;;;;3.47;3.07;;;18.00;99.90;;;;;;5092098;28;21194;-85
2022/06/05 02:21:40;;;;;;;3.97;3.67;;;18.00;99.90;;;;;;5089754;28;20619;-85
2022/06/05 02:24:08;;;;;;;4.67;3.50;;;18.00;99.90;;;;;;5091986;28;20725;-86
2022/06/05 02:26:35;;;;;;;3.20;2.53;;;18.00;99.90;;;;;;5089923;28;20622;-86
2022/06/05 02:29:04;;;;;;;4.53;3.20;;;18.10;99.90;;;;;;5091033;28;20660;-88
2022/06/05 02:31:42;;;;;;;4.20;3.50;;;18.10;99.90;;;;;;5091254;28;20728;-87
2022/06/05 02:34:18;;;;;;;3.90;3.40;;;18.20;99.90;;;;;;5092207;28;20662;-87
2022/06/05 02:36:57;;;;;;;3.83;3.13;;;18.20;99.90;;;;;;5096343;28;20680;-85
2022/06/05 02:39:32;;;;;;;3.60;3.30;;;18.20;99.90;;;;;;5095642;28;20636;-87
2022/06/05 02:42:06;;;;;;;5.00;4.40;;;18.20;99.90;;;;;;5103264;28;20959;-88
2022/06/05 02:44:42;;;;;;;4.10;3.80;;;18.10;99.90;;;;;;5090995;28;20612;-88
2022/06/05 02:47:22;;;;;;;3.30;3.00;;;18.10;99.90;;;;;;5091365;28;20651;-86
2022/06/05 02:49:55;;;;;;;4.30;3.27;;;18.10;99.90;;;;;;5090787;28;20635;-88
2022/06/05 02:52:23;;;;;;;3.53;2.93;;;18.10;99.90;;;;;;5091620;28;20725;-87
2022/06/05 02:54:56;;;;;;;4.20;3.90;;;18.10;99.90;;;;;;5103978;28;20726;-86
2022/06/05 02:57:23;;;;;;;3.37;3.07;;;18.10;99.90;;;;;;5108305;28;20688;-88
2022/06/05 02:59:50;;;;;;;3.50;3.20;;;18.10;99.90;;;;;;5089975;28;20673;-88
2022/06/05 03:05:03;;;;;;;2.93;2.70;;;18.00;99.90;;;;;;5089749;28;20620;-87
2022/06/05 03:07:30;;;;;;;4.57;3.63;;;17.80;99.90;;;;;;5089653;28;20682;-88
2022/06/05 03:09:56;;;;;;;3.67;3.37;;;17.90;99.90;;;;;;5089274;28;20624;-89
2022/06/05 03:12:23;;;;;;;6.23;3.87;;;18.00;99.90;;;;;;5088109;28;21275;-86
2022/06/05 03:14:50;;;;;;;3.50;2.73;;;17.90;99.90;;;;;;5089967;28;21169;-88
2022/06/05 03:17:18;;;;;;;4.80;3.93;;;17.90;99.90;;;;;;5089262;28;21256;-88
2022/06/05 03:19:45;;;;;;;2.83;2.57;;;17.90;99.90;;;;;;5088514;28;20629;-88
2022/06/05 03:22:12;;;;;;;3.80;3.00;;;17.90;99.90;;;;;;5088866;28;20636;-86
2022/06/05 03:24:39;;;;;;;3.90;3.10;;;17.90;99.90;;;;;;5105000;28;20619;-86
2022/06/05 03:27:06;;;;;;;4.07;3.37;;;17.90;99.90;;;;;;5108469;28;20622;-86
2022/06/05 03:29:33;;;;;;;3.87;3.57;;;18.00;99.90;;;;;;5092957;28;21269;-87
2022/06/05 03:32:00;;;;;;;4.20;3.47;;;18.10;99.90;;;;;;5089889;28;20779;-86
2022/06/05 03:34:28;;;;;;;4.30;3.60;;;18.00;99.90;;;;;;5088630;28;20684;-88
2022/06/05 03:36:54;;;;;;;3.53;3.20;;;18.00;99.90;;;;;;5093573;28;20651;-89
2022/06/05 03:39:21;;;;;;;3.97;3.50;;;18.00;99.90;;;;;;5106928;28;20731;-86
2022/06/05 03:41:48;;;;;;;4.90;4.03;;;18.10;99.90;;;;;;5103826;28;21225;-86
2022/06/05 03:44:15;;;;;;;3.10;2.90;;;18.10;99.90;;;;;;5090154;28;20616;-87
2022/06/05 03:46:42;;;;;;;3.77;3.47;;;18.10;99.90;;;;;;5089278;28;20684;-86
2022/06/05 03:49:10;;;;;;;5.33;3.63;;;18.00;99.90;;;;;;5088510;28;20683;-87
2022/06/05 03:51:39;;;;;;;4.20;3.80;;;18.00;99.90;;;;;;5089267;28;20645;-87
2022/06/05 03:54:06;;;;;;;4.20;2.90;;;17.90;99.90;;;;;;5106421;28;20631;-87
2022/06/05 03:56:33;;;;;;;3.63;3.20;;;17.80;99.90;;;;;;5106185;28;20696;-87
2022/06/05 03:59:00;;;;;;;3.23;2.93;;;17.80;99.90;;;;;;5106481;28;20726;-86
2022/06/05 04:01:28;;;;;;;4.20;3.57;;;17.80;99.90;;;;;;5108195;28;20672;-86
2022/06/05 04:03:56;;;;;;;3.23;2.87;;;17.80;99.90;;;;;;5096036;28;20706;-85
2022/06/05 04:06:27;;;;;;;4.20;3.40;;;17.70;99.90;;;;;;5108317;28;20639;-86
2022/06/05 04:08:56;;;;;;;4.90;3.93;;;17.60;99.90;;;;;;5100790;28;20674;-87
2022/06/05 04:11:23;;;;;;;3.60;2.97;;;17.70;99.90;;;;;;5088952;28;20752;-88
2022/06/05 04:13:51;;;;;;;3.53;3.23;;;17.70;99.90;;;;;;5087943;28;21316;-86
2022/06/05 04:16:20;;;;;;;3.83;3.47;;;17.70;99.90;;;;;;5088321;28;21178;-87
2022/06/05 04:18:47;;;;;;;2.87;2.53;;;17.90;99.90;;;;;;5070644;28;1084253;-86
2022/06/05 04:21:16;;;;;;;5.60;4.10;;;17.90;99.90;;;;;;5108906;28;20202;-87
2022/06/05 04:23:43;;;;;;;4.37;3.77;;;17.90;99.90;;;;;;5110092;28;20630;-87
2022/06/05 04:26:14;;;;;;;4.80;3.87;;;17.90;99.90;;;;;;5107456;28;21201;-87
2022/06/05 04:28:42;;;;;;;4.17;3.00;;;17.90;99.90;;;;;;5089953;28;20621;-86
2022/06/05 04:31:18;;;;;;;4.10;3.17;;;17.80;99.90;;;;;;5089239;28;21182;-87
2022/06/05 04:33:45;;;;;;;3.77;3.23;;;17.70;99.90;;;;;;5087756;28;20874;-87
2022/06/05 04:36:13;;;;;;;3.63;3.33;;;17.50;99.90;;;;;;5088449;28;21248;-86
2022/06/05 04:38:40;;;;;;;3.73;3.43;;;17.50;99.90;;;;;;5088775;28;20633;-87
2022/06/05 04:41:07;;;;;;;4.27;3.87;;;17.50;99.90;;;;;;5099497;28;21246;-86
2022/06/05 04:43:36;;;;;;;4.93;4.53;;;17.50;99.90;;;;;;5097943;28;20644;-87
2022/06/05 04:46:03;;;;;;;3.50;3.10;;;17.60;99.90;;;;;;5088226;28;20700;-88
2022/06/05 04:48:30;;;;;;;5.60;3.77;;;17.50;99.90;;;;;;5105526;28;21259;-86
2022/06/05 04:50:57;;;;;;;4.20;3.83;;;17.30;99.90;;;;;;5108616;28;20707;-87
2022/06/05 04:53:24;;;;;;;4.67;4.27;;;17.20;99.90;;;;;;5095742;28;20654;-86
2022/06/05 04:55:51;;;;;;;6.33;4.30;;;17.30;99.90;;;;;;5088106;28;20620;-87
2022/06/05 04:58:18;;;;;;;3.77;3.43;;;17.30;99.90;;;;;;5090820;28;20731;-86
2022/06/05 05:00:46;;;;;;;4.90;3.67;;;17.20;99.90;;;;;;5089242;28;21046;-87
2022/06/05 05:03:13;;;;;;;3.53;3.23;;;17.10;99.90;;;;;;5092636;28;20636;-88
2022/06/05 05:05:40;;;;;;;4.23;3.57;;;17.20;99.90;;;;;;5091800;28;20677;-88
2022/06/05 05:08:07;;;;;;;3.70;3.37;;;17.20;99.90;;;;;;5092088;28;20628;-89
2022/06/05 05:10:34;;;;;;;4.37;3.00;;;17.10;99.90;;;;;;5108302;28;21152;-89
2022/06/05 05:13:01;;;;;;;3.73;3.43;;;17.20;99.90;;;;;;5105006;28;20630;-90
2022/06/05 05:15:28;;;;;;;3.20;2.70;;;17.00;99.90;;;;;;5107909;28;20650;-90
2022/06/05 05:17:57;;;;;;;4.30;3.90;;;17.10;99.90;;;;;;5105474;28;20881;-90
2022/06/05 05:23:11;;;;;;;4.60;4.20;;;17.10;99.90;;;;;;5105670;27;20628;-90
2022/06/05 05:25:38;;;;;;;4.37;3.57;;;17.00;99.90;;;;;;5109326;28;20990;-88
2022/06/05 05:28:06;;;;;;;4.10;3.63;;;17.00;99.90;;;;;;5110715;28;20650;-89
2022/06/05 05:30:33;;;;;;;3.27;3.03;;;17.00;99.90;;;;;;5112893;28;20611;-89
2022/06/05 05:33:01;;;;;;;4.10;3.47;;;17.00;99.90;;;;;;5110627;28;21511;-89
2022/06/05 05:35:28;;;;;;;4.70;3.60;;;17.00;99.90;;;;;;5111521;28;20642;-89
2022/06/05 05:37:55;;;;;;;5.87;5.27;;;17.10;99.90;;;;;;5103181;28;20708;-88
2022/06/05 05:43:06;;;;;;;4.40;3.60;;;18.10;99.90;;;;;;5102708;28;20643;-88
2022/06/05 05:45:38;;;;;;;5.27;4.77;;;17.40;99.90;;;;;;5091745;28;21021;-91
2022/06/05 05:48:12;;;;;;;3.53;3.20;;;17.40;99.90;;;;;;5093185;28;20623;-89
2022/06/05 05:50:39;;;;;;;4.43;4.00;;;17.40;99.90;;;;;;5091361;28;20616;-88
2022/06/05 05:53:06;;;;;;;7.43;3.83;;;17.20;99.90;;;;;;5093458;28;20976;-87
2022/06/05 05:55:33;;;;;;;3.83;3.50;;;17.10;99.90;;;;;;5091220;28;20688;-86
2022/06/05 05:58:00;;;;;;;3.50;3.20;;;17.10;99.90;;;;;;5093387;28;20646;-86
2022/06/05 06:00:27;;;;;;;4.13;3.73;;;17.20;99.90;;;;;;5091463;28;20619;-85
2022/06/05 06:02:54;;;;;;;3.83;3.53;;;17.30;99.90;;;;;;5093852;28;20693;-87
2022/06/05 06:05:22;;;;;;;3.87;3.57;;;17.30;99.90;;;;;;5109194;28;20684;-87
2022/06/05 06:07:49;;;;;;;4.63;3.20;;;17.40;99.90;;;;;;5097239;28;20620;-88
2022/06/05 06:10:16;;;;;;;4.47;4.07;;;17.30;99.90;;;;;;5091503;28;20651;-86
2022/06/05 06:12:43;;;;;;;3.80;3.20;;;17.40;99.90;;;;;;5092287;28;20632;-88
2022/06/05 06:15:11;;;;;;;4.27;3.57;;;17.30;99.90;;;;;;5090774;28;20648;-87
2022/06/05 06:17:37;;;;;;;5.57;3.53;;;17.10;99.90;;;;;;5092467;28;21261;-86
2022/06/05 06:20:05;;;;;;;4.10;2.97;;;17.10;99.90;;;;;;5090977;28;20726;-86
2022/06/05 06:22:35;;;;;;;2.97;2.53;;;17.20;99.90;;;;;;5092320;28;20681;-86
2022/06/05 06:25:03;;;;;;;3.07;2.77;;;17.10;99.90;;;;;;5090975;28;20715;-86
2022/06/05 06:27:29;;;;;;;2.50;2.30;;;17.00;99.90;;;;;;5093214;28;20717;-85
2022/06/05 06:29:56;;;;;;;3.57;2.50;;;17.00;99.90;;;;;;5091952;28;20699;-86
2022/06/05 06:32:23;;;;;;;2.43;2.20;;;17.00;99.90;;;;;;5090686;28;20616;-85
2022/06/05 06:34:50;;;;;;;3.13;2.80;;;17.00;99.90;;;;;;5103763;28;20724;-85
2022/06/05 06:37:20;;;;;;;2.83;2.40;;;17.00;99.90;;;;;;5110487;28;21042;-87
2022/06/05 06:39:48;;;;;;;1.93;1.73;;;16.90;99.90;;;;;;5095696;28;20655;-85
2022/06/05 06:42:15;;;;;;;1.07;1.07;;;16.90;99.90;;;;;;5099535;28;20718;-85
2022/06/05 06:44:42;;;;;;;2.63;2.27;;;16.90;99.90;;;;;;5092345;28;20678;-85
2022/06/05 06:47:09;;;;;;;1.83;1.73;;;17.00;99.90;;;;;;5091558;28;21042;-84
2022/06/05 06:49:35;;;;;;;1.37;1.27;;;17.00;99.90;;;;;;5091894;28;20657;-85
2022/06/05 06:52:02;;;;;;;1.93;1.73;;;17.00;99.90;;;;;;5090556;28;21322;-84
2022/06/05 06:54:29;;;;;;;2.13;2.00;;;17.00;99.90;;;;;;5092265;28;20770;-84
2022/06/05 06:56:58;;;;;;;2.07;1.87;;;17.00;99.90;;;;;;5090973;28;20673;-83
2022/06/05 06:59:25;;;;;;;2.20;2.10;;;17.00;99.90;;;;;;5091034;28;20656;-83
2022/06/05 07:01:51;;;;;;;1.60;1.50;;;17.00;99.90;;;;;;5091692;28;21036;-84
2022/06/05 07:04:18;;;;;;;2.23;1.90;;;17.00;99.90;;;;;;5091592;28;20648;-84
2022/06/05 07:06:45;;;;;;;1.10;1.10;;;16.90;99.90;;;;;;5090780;28;21272;-83
2022/06/05 07:09:14;;;;;;;1.50;1.40;;;17.00;99.90;;;;;;5091159;28;21194;-83
2022/06/05 07:11:41;;;;;;;1.57;1.47;;;16.90;99.90;;;;;;5104930;28;20623;-83
2022/06/05 07:14:10;;;;;;;3.10;1.83;;;16.80;99.90;;;;;;5106226;28;20682;-83
2022/06/05 07:16:37;;;;;;;2.30;2.10;;;16.70;99.90;;;;;;5109825;28;20656;-83
2022/06/05 07:19:04;;;;;;;1.30;1.10;;;16.70;99.90;;;;;;5108765;28;20714;-82
2022/06/05 07:21:31;;;;;;;1.60;1.40;;;16.50;99.90;;;;;;5110347;28;21181;-83
2022/06/05 07:24:00;;;;;;;1.17;1.07;;;16.50;99.90;;;;;;5108444;28;20684;-84
2022/06/05 07:26:30;;;;;;;3.60;1.57;;;16.50;99.90;;;;;;5107714;28;21042;-82
2022/06/05 07:28:58;;;;;;;1.70;1.60;;;16.50;99.90;;;;;;5108135;28;20727;-83
2022/06/05 07:31:29;;;;;;;2.23;1.90;;;16.60;99.90;;;;;;5108554;28;20628;-83
2022/06/05 07:33:56;;;;;;;1.77;1.67;;;16.70;99.90;;;;;;5104930;28;20734;-84
2022/06/05 07:36:25;;;;;;;2.20;1.80;;;16.70;99.90;;;;;;5108164;28;20726;-81
2022/06/05 07:38:53;;;;;;;2.40;2.20;;;16.80;99.90;;;;;;5093317;28;20636;-83
2022/06/05 07:41:22;;;;;;;3.30;1.33;;;16.80;99.90;;;;;;5102155;28;20726;-81
2022/06/05 07:43:49;;;;;;;1.20;1.13;;;16.90;99.90;;;;;;5094794;28;20638;-82
2022/06/05 07:46:16;;;;;;;1.60;1.50;;;16.90;99.90;;;;;;5088887;28;21297;-82
2022/06/05 07:48:44;;;;;;;1.90;1.70;;;17.00;99.90;;;;;;5090040;28;20632;-82
2022/06/05 07:56:43;;;;;;;1.63;1.53;;;16.80;99.90;;;;;;5089166;28;20670;-81
2022/06/05 07:59:10;;;;;;;2.10;1.77;;;16.90;99.90;;;;;;5090741;28;20632;-83
2022/06/05 08:01:37;;;;;;;1.80;1.70;;;16.90;99.90;;;;;;5089595;28;20697;-83
2022/06/05 08:04:06;;;;;;;1.87;1.33;;;17.00;99.90;;;;;;5099936;28;20624;-83
2022/06/05 08:06:34;;;;;;;1.67;1.57;;;17.10;99.90;;;;;;5108760;28;20618;-81
2022/06/05 08:09:01;;;;;;;1.70;1.53;;;17.30;99.90;;;;;;5109368;28;20622;-83
2022/06/05 08:11:28;;;;;;;1.43;1.10;;;17.40;99.90;;;;;;5107378;28;20710;-82
2022/06/05 08:13:55;;;;;;;0.90;0.90;;;17.40;99.90;;;;;;5088787;28;20620;-86
2022/06/05 08:16:22;;;;;;;2.13;1.70;;;17.60;99.90;;;;;;5089364;28;20681;-84
2022/06/05 08:18:51;;;;;;;2.00;1.67;;;17.60;99.90;;;;;;5089461;28;21303;-83
2022/06/05 08:21:19;;;;;;;1.80;1.70;;;17.70;99.90;;;;;;5088808;28;21195;-86
2022/06/05 08:23:48;;;;;;;1.10;1.00;;;17.80;99.90;;;;;;5106396;27;20702;-84
2022/06/05 08:26:15;;;;;;;2.13;1.93;;;18.10;99.90;;;;;;5109062;28;20723;-84
2022/06/05 08:28:42;;;;;;;2.50;1.80;;;18.20;99.90;;;;;;5107376;28;20627;-84
2022/06/05 08:31:09;;;;;;;1.37;1.27;;;18.40;99.90;;;;;;5108950;28;20666;-84
2022/06/05 08:33:37;;;;;;;1.67;1.50;;;18.50;99.90;;;;;;5105380;28;20654;-84
2022/06/05 08:36:04;;;;;;;0.93;0.93;;;18.60;99.90;;;;;;5108962;27;21217;-84
2022/06/05 08:41:33;;;;;;;1.47;1.30;;;18.70;99.90;;;;;;5092561;28;21311;-83
2022/06/05 08:44:13;;;;;;;1.43;1.30;;;18.70;99.90;;;;;;5095985;28;20693;-84
2022/06/05 08:46:43;;;;;;;1.77;1.67;;;18.80;99.90;;;;;;5088960;28;20608;-85
2022/06/05 08:49:14;;;;;;;2.57;1.73;;;18.90;99.90;;;;;;5098087;28;20648;-85
2022/06/05 08:51:49;;;;;;;0.90;0.90;;;18.90;99.90;;;;;;5109022;28;20626;-85
2022/06/05 08:54:22;;;;;;;1.70;1.60;;;19.10;99.90;;;;;;5106369;28;20733;-85
2022/06/05 08:56:55;;;;;;;1.10;1.10;;;19.40;99.90;;;;;;5088739;28;20732;-85
2022/06/05 08:59:29;;;;;;;1.03;0.97;;;19.50;99.90;;;;;;5108775;28;20663;-85
2022/06/05 09:02:00;;;;;;;1.20;1.10;;;19.80;99.90;;;;;;5108318;28;20595;-85
2022/06/05 09:04:41;;;;;;;1.43;1.33;;;19.90;99.90;;;;;;5106388;28;20632;-84
2022/06/05 09:07:14;;;;;;;1.10;0.97;;;20.10;99.90;;;;;;5106720;28;20738;-85
2022/06/05 09:09:47;;;;;;;1.10;1.10;;;20.10;99.90;;;;;;5108903;28;20661;-86
2022/06/05 09:12:30;;;;;;;0.90;0.90;;;20.10;99.90;;;;;;5104402;28;20651;-86
2022/06/05 09:15:06;;;;;;;1.17;0.97;;;20.20;99.90;;;;;;5101043;28;20714;-85
2022/06/05 09:17:34;;;;;;;1.57;1.40;;;20.40;99.90;;;;;;5106433;28;21450;-84
2022/06/05 09:20:01;;;;;;;2.27;1.10;;;20.60;99.90;;;;;;5108668;28;20619;-85
2022/06/05 09:22:35;;;;;;;1.27;1.17;;;20.60;99.90;;;;;;5106376;28;20704;-85
2022/06/05 09:25:26;;;;;;;0.90;0.90;;;20.70;99.90;;;;;;5088343;28;20626;-85
2022/06/05 09:28:07;;;;;;;0.70;0.70;;;20.70;99.90;;;;;;5088107;28;20624;-85
2022/06/05 09:30:42;;;;;;;0.60;0.60;;;20.80;99.90;;;;;;5088288;28;20719;-85
2022/06/05 09:33:18;;;;;;;0.80;0.80;;;20.80;99.90;;;;;;5090387;28;20680;-83
2022/06/05 09:35:49;;;;;;;0.70;0.70;;;20.90;99.90;;;;;;5088142;28;20648;-85
2022/06/05 09:38:23;;;;;;;0.60;0.60;;;21.00;99.90;;;;;;5092068;28;21321;-85
2022/06/05 09:41:06;;;;;;;0.70;0.70;;;21.10;99.90;;;;;;5097162;28;20704;-85
2022/06/05 09:44:01;;;;;;;1.17;0.70;;;21.00;99.90;;;;;;5104755;28;21240;-85
2022/06/05 09:46:43;;;;;;;0.80;0.47;;;21.00;99.90;;;;;;5084730;28;20866;-84
2022/06/05 09:49:16;;;;;;;0.93;0.70;;;20.90;99.90;;;;;;5104094;28;20643;-84
2022/06/05 09:51:45;;;;;;;1.23;0.83;;;20.80;99.90;;;;;;5107462;28;20871;-84
2022/06/05 09:54:20;;;;;;;1.30;0.57;;;20.90;99.90;;;;;;5091170;28;20612;-85
2022/06/05 09:59:51;;;;;;;0.83;0.77;;;20.90;99.90;;;;;;5094638;28;20620;-83
2022/06/05 10:02:22;;;;;;;1.00;1.00;;;21.20;99.90;;;;;;5107706;28;21162;-84
2022/06/05 10:04:50;;;;;;;1.00;0.87;;;21.30;99.90;;;;;;5089120;28;21381;-86
2022/06/05 10:07:21;;;;;;;0.70;0.70;;;21.50;99.90;;;;;;5107121;28;20622;-86
2022/06/05 10:09:49;;;;;;;0.57;0.57;;;21.70;99.90;;;;;;5103391;28;20616;-85
2022/06/05 10:12:24;;;;;;;0.80;0.80;;;22.00;99.90;;;;;;5104490;28;21259;-86
2022/06/05 10:14:56;;;;;;;0.70;0.70;;;22.40;99.90;;;;;;5093541;28;20612;-84
2022/06/05 10:17:49;;;;;;;0.90;0.90;;;22.30;99.90;;;;;;5100321;28;20640;-85
2022/06/05 10:20:47;;;;;;;0.50;0.47;;;22.30;99.90;;;;;;5107409;28;20716;-85
2022/06/05 10:23:35;;;;;;;0.60;0.60;;;22.20;99.90;;;;;;5092207;28;20628;-85
2022/06/05 10:26:15;;;;;;;0.73;0.73;;;22.00;99.90;;;;;;5092291;28;20619;-83
2022/06/05 10:28:45;;;;;;;1.43;0.73;;;21.90;99.90;;;;;;5090996;28;21201;-85
2022/06/05 10:31:15;;;;;;;1.10;0.90;;;21.70;99.90;;;;;;5094564;28;20692;-85
2022/06/05 10:33:49;;;;;;;0.77;0.77;;;21.60;99.90;;;;;;5109760;28;21254;-85
2022/06/05 10:36:18;;;;;;;1.73;1.63;;;21.50;99.90;;;;;;5106005;28;20655;-85
2022/06/05 10:38:53;;;;;;;1.70;1.60;;;21.30;99.90;;;;;;5096726;28;20616;-83
2022/06/05 10:41:37;;;;;;;2.53;1.93;;;21.20;99.90;;;;;;5103775;28;21113;-84
2022/06/05 10:44:31;;;;;;;1.47;1.30;;;21.20;99.90;;;;;;5110974;27;21179;-84
2022/06/05 10:47:06;;;;;;;3.33;2.13;;;20.90;99.90;;;;;;5090520;28;20656;-83
2022/06/05 10:49:46;;;;;;;1.93;1.73;;;20.60;99.90;;;;;;5093342;28;20629;-83
2022/06/05 10:52:33;;;;;;;1.63;1.53;;;20.60;99.90;;;;;;5109509;28;21482;-83
2022/06/05 10:55:30;;;;;;;3.30;2.27;;;20.40;99.90;;;;;;5094690;28;20663;-84
2022/06/05 10:58:08;;;;;;;2.23;2.03;;;20.40;99.90;;;;;;5105071;28;21323;-85
2022/06/05 11:00:45;;;;;;;1.37;1.27;;;20.10;99.90;;;;;;5105900;28;20957;-84
2022/06/05 11:03:20;;;;;;;1.80;1.70;;;20.10;99.90;;;;;;5090404;28;20651;-83
2022/06/05 11:06:04;;;;;;;3.20;2.07;;;20.00;99.90;;;;;;5090470;28;20624;-84
2022/06/05 11:08:43;;;;;;;1.70;1.60;;;19.80;99.90;;;;;;5099431;28;20631;-84
2022/06/05 11:14:10;;;;;;;1.93;1.83;;;19.70;99.90;;;;;;5092521;28;21071;-84
2022/06/05 11:16:44;;;;;;;2.23;2.03;;;19.70;99.90;;;;;;5092734;28;20757;-86
2022/06/05 11:19:17;;;;;;;1.80;1.70;;;19.70;99.90;;;;;;5087372;28;21039;-85
2022/06/05 11:21:45;;;;;;;2.63;2.43;;;19.60;99.90;;;;;;5089537;28;20725;-82
2022/06/05 11:24:23;;;;;;;1.43;1.33;;;19.60;99.90;;;;;;5086723;28;21189;-85
2022/06/05 11:26:57;;;;;;;1.63;1.53;;;19.50;99.90;;;;;;5087676;28;20616;-84
2022/06/05 11:29:32;;;;;;;2.27;1.90;;;19.30;99.90;;;;;;5087996;28;20689;-83
2022/06/05 11:32:20;;;;;;;1.40;1.30;;;19.30;99.90;;;;;;5088029;28;20771;-84
2022/06/05 11:34:53;;;;;;;1.40;1.30;;;19.20;99.90;;;;;;5087722;28;20659;-83
2022/06/05 11:37:34;;;;;;;3.30;1.20;;;19.00;99.90;;;;;;5088396;28;20659;-84
2022/06/05 11:40:13;;;;;;;1.47;1.37;;;19.10;99.90;;;;;;5089564;28;21243;-85
2022/06/05 11:42:54;;;;;;;1.67;1.43;;;19.30;99.90;;;;;;5089488;28;20623;-84
2022/06/05 11:45:37;;;;;;;2.20;1.80;;;19.70;99.90;;;;;;5087797;28;20751;-86
2022/06/05 11:48:13;;;;;;;4.87;2.90;;;20.50;99.90;;;;;;5090100;28;20621;-82
2022/06/05 11:50:45;;;;;;;2.30;2.10;;;21.70;99.90;;;;;;5087951;28;21253;-84
2022/06/05 11:53:19;;;;;;;2.90;1.53;;;22.50;99.90;;;;;;5103936;28;20630;-84
2022/06/05 11:55:53;;;;;;;1.60;1.50;;;23.30;99.90;;;;;;5092914;28;20679;-84
2022/06/05 11:58:27;;;;;;;1.17;1.10;;;24.10;99.90;;;;;;5109563;28;20662;-85
2022/06/05 12:00:59;;;;;;;1.70;1.57;;;24.90;99.90;;;;;;5088971;27;20898;-85
2022/06/05 12:03:35;;;;;;;1.20;1.20;;;26.00;99.90;;;;;;5088767;28;20643;-86
2022/06/05 12:06:09;;;;;;;1.43;1.33;;;26.90;98.60;;;;;;5100909;28;20624;-86
2022/06/05 12:08:40;;;;;;;1.20;1.10;;;27.20;96.10;;;;;;5087983;28;20889;-84
2022/06/05 12:11:10;;;;;;;1.90;1.80;;;27.50;93.30;;;;;;5093442;28;20659;-87
2022/06/05 12:14:08;;;;;;;1.73;1.00;;;27.80;90.40;;;;;;5102915;28;20624;-85
2022/06/05 12:16:42;;;;;;;0.90;0.90;;;26.90;92.10;;;;;;5086560;28;20657;-85
2022/06/05 12:19:16;;;;;;;1.00;1.00;;;26.10;92.90;;;;;;5088274;28;20708;-86
2022/06/05 12:21:58;;;;;;;1.07;1.07;;;25.30;92.80;;;;;;5088844;28;20718;-84
2022/06/05 12:24:30;;;;;;;0.97;0.80;;;25.20;93.20;;;;;;5088315;28;20738;-87
2022/06/05 12:27:02;;;;;;;1.90;1.20;;;25.00;94.80;;;;;;5086413;28;20796;-86
2022/06/05 12:29:35;;;;;;;0.70;0.70;;;24.50;94.90;;;;;;5085794;28;21182;-85
2022/06/05 12:32:06;;;;;;;1.40;1.30;;;23.90;95.80;;;;;;5086027;28;21007;-87
2022/06/05 12:34:42;;;;;;;1.60;1.50;;;23.90;95.80;;;;;;5086820;28;20632;-86
2022/06/05 12:37:18;;;;;;;1.10;1.10;;;24.00;96.70;;;;;;5092978;28;21282;-85
2022/06/05 12:39:48;;;;;;;1.30;1.20;;;24.10;96.10;;;;;;5091567;28;20655;-86
2022/06/05 12:42:26;;;;;;;0.90;0.90;;;24.80;95.60;;;;;;5093711;28;20625;-85
2022/06/05 12:44:56;;;;;;;1.13;1.10;;;26.10;94.30;;;;;;5103151;28;20610;-86
2022/06/05 12:47:38;;;;;;;1.40;0.97;;;27.40;91.40;;;;;;5092829;28;20640;-84
2022/06/05 12:50:19;;;;;;;1.93;1.73;;;28.50;89.00;;;;;;5093084;28;20694;-86
2022/06/05 12:52:52;;;;;;;1.07;1.03;;;29.60;86.20;;;;;;5093661;28;20635;-86
2022/06/05 12:55:25;;;;;;;1.20;1.10;;;30.40;83.30;;;;;;5105608;28;20619;-86
2022/06/05 12:57:58;;;;;;;1.70;1.60;;;29.90;78.80;;;;;;5091887;28;20613;-85
2022/06/05 13:00:46;;;;;;;2.07;1.87;;;28.60;79.30;;;;;;5087469;28;20720;-83
2022/06/05 13:03:21;;;;;;;1.23;1.13;;;27.90;82.90;;;;;;5087144;28;20638;-83
2022/06/05 13:05:54;;;;;;;3.30;1.80;;;28.50;83.30;;;;;;5094708;28;21275;-83
2022/06/05 13:08:29;;;;;;;2.67;2.47;;;28.20;80.30;;;;;;5089944;28;20681;-84
2022/06/05 13:11:05;;;;;;;1.20;1.20;;;28.00;84.30;;;;;;5102079;28;20633;-83
2022/06/05 13:13:41;;;;;;;2.27;2.13;;;28.20;82.10;;;;;;5095176;28;20634;-83
2022/06/05 13:16:18;;;;;;;1.00;0.90;;;27.50;80.80;;;;;;5088023;28;20654;-81
2022/06/05 13:18:58;;;;;;;1.43;1.33;;;26.80;82.80;;;;;;5092693;28;20663;-83
2022/06/05 13:21:34;;;;;;;1.27;1.07;;;26.50;86.50;;;;;;5098376;28;20684;-84
2022/06/05 13:24:13;;;;;;;0.80;0.80;;;26.50;85.20;;;;;;5094026;28;21209;-83
2022/06/05 13:26:51;;;;;;;1.73;1.47;;;26.20;86.00;;;;;;5088402;28;20737;-87
2022/06/05 13:29:35;;;;;;;1.10;1.00;;;26.40;84.80;;;;;;5097728;28;20627;-86
2022/06/05 13:32:09;;;;;;;0.83;0.80;;;26.50;88.80;;;;;;5096057;28;20723;-85
2022/06/05 13:34:41;;;;;;;3.13;1.00;;;27.00;86.10;;;;;;5087964;28;20731;-86